PIMOHWEATHER Station Historical Data
Daily Summary for July 06, 2020 Units:  Metric    English   Both
Daily Weekly Monthly Yearly
  High: Low: Average:
Temperature: 38.0 °C 26.0 °C 30 °C
Dew Point: 28.0 °C 24.0 °C 26.1 °C
Humidity: 96% 54% 81%
Wind Speed: 23km/h 0km/h 6.4km/h
Wind Gust: 32km/h - -
Wind- - SE
Pressure: 1014.0 hPa 1009.1 hPa -
Precipitation: 0.30 mm    
 
 
Tabular Data for July 06, 2020
Time Temperature Dew Point Pressure Wind Wind Speed Wind Gust Humidity Rainfall Rate (Hourly) solar
00:04 26.0 °C 24.0 °C 1012.0 hPa North 5 km/h 8 km/h 90% 0.00 mm 0.00 W/m2
00:09 26.0 °C 24.0 °C 1012.2 hPa NNE 9 km/h 12 km/h 90% 1.80 mm 0.00 W/m2
00:14 26.0 °C 25.0 °C 1012.2 hPa NNW 8 km/h 12 km/h 92% 1.80 mm 0.00 W/m2
00:19 26.0 °C 25.0 °C 1012.2 hPa North 10 km/h 12 km/h 93% 1.78 mm 0.00 W/m2
00:29 26.0 °C 25.0 °C 1011.9 hPa NNE 4 km/h 4 km/h 93% 0.00 mm 0.00 W/m2
00:33 26.0 °C 25.0 °C 1011.6 hPa NNW 2 km/h 4 km/h 93% 0.00 mm 0.00 W/m2
00:39 26.0 °C 25.0 °C 1011.9 hPa North 6 km/h 8 km/h 94% 0.00 mm 0.00 W/m2
00:43 26.0 °C 25.0 °C 1011.9 hPa North 6 km/h 8 km/h 94% 0.00 mm 0.00 W/m2
00:49 26.0 °C 25.0 °C 1011.9 hPa North 6 km/h 8 km/h 94% 0.00 mm 0.00 W/m2
00:54 26.0 °C 25.0 °C 1011.5 hPa NNE 5 km/h 8 km/h 94% 0.00 mm 0.00 W/m2
00:59 26.0 °C 25.0 °C 1011.7 hPa Calm     94% 0.00 mm 0.00 W/m2
01:04 26.0 °C 25.0 °C 1011.5 hPa NNE 1 km/h 4 km/h 93% 0.00 mm 0.00 W/m2
01:09 26.0 °C 25.0 °C 1011.4 hPa NNE 11 km/h 12 km/h 93% 0.00 mm 0.00 W/m2
01:14 26.0 °C 25.0 °C 1011.2 hPa NNE 9 km/h 12 km/h 93% 0.00 mm 0.00 W/m2
01:19 26.0 °C 25.0 °C 1011.3 hPa NNE 8 km/h 8 km/h 93% 0.00 mm 0.00 W/m2
01:29 26.0 °C 25.0 °C 1011.2 hPa North 4 km/h 4 km/h 92% 0.00 mm 0.00 W/m2
01:34 26.0 °C 25.0 °C 1011.2 hPa North 7 km/h 12 km/h 93% 0.00 mm 0.00 W/m2
01:39 26.0 °C 25.0 °C 1010.9 hPa NNE 3 km/h 4 km/h 93% 0.00 mm 0.00 W/m2
01:44 26.0 °C 25.0 °C 1010.9 hPa NNE 5 km/h 8 km/h 93% 0.00 mm 0.00 W/m2
01:49 26.0 °C 25.0 °C 1011.0 hPa North 7 km/h 8 km/h 93% 0.00 mm 0.00 W/m2
01:54 26.0 °C 25.0 °C 1010.8 hPa NNE 6 km/h 8 km/h 93% 0.00 mm 0.00 W/m2
01:59 26.0 °C 25.0 °C 1011.0 hPa North 9 km/h 12 km/h 94% 0.00 mm 0.00 W/m2
02:03 26.0 °C 25.0 °C 1011.2 hPa NNE 5 km/h 8 km/h 94% 0.00 mm 0.00 W/m2
02:09 26.0 °C 25.0 °C 1011.2 hPa North 8 km/h 8 km/h 94% 0.00 mm 0.00 W/m2
02:13 26.0 °C 25.0 °C 1011.3 hPa North 5 km/h 8 km/h 95% 0.00 mm 0.00 W/m2
02:24 26.0 °C 26.0 °C 1011.2 hPa NNE 8 km/h 8 km/h 95% 0.00 mm 0.00 W/m2
02:29 26.0 °C 26.0 °C 1011.1 hPa NNE 6 km/h 8 km/h 95% 0.00 mm 0.00 W/m2
02:34 26.0 °C 26.0 °C 1010.9 hPa North 6 km/h 8 km/h 95% 0.00 mm 0.00 W/m2
02:39 26.0 °C 25.0 °C 1010.9 hPa North 5 km/h 8 km/h 95% 0.00 mm 0.00 W/m2
02:44 26.0 °C 26.0 °C 1010.9 hPa North 1 km/h 4 km/h 95% 0.00 mm 0.00 W/m2
02:59 27.0 °C 26.0 °C 1010.8 hPa North 1 km/h 4 km/h 94% 0.00 mm 0.00 W/m2
03:03 26.0 °C 25.0 °C 1011.3 hPa Calm     94% 0.00 mm 0.00 W/m2
03:09 27.0 °C 26.0 °C 1011.1 hPa NW 5 km/h 8 km/h 94% 0.00 mm 0.00 W/m2
03:14 26.0 °C 26.0 °C 1011.5 hPa NW 8 km/h 8 km/h 95% 0.00 mm 0.00 W/m2
03:19 26.0 °C 26.0 °C 1011.2 hPa Calm     95% 0.00 mm 0.00 W/m2
03:24 26.0 °C 26.0 °C 1011.0 hPa Calm     95% 0.00 mm 0.00 W/m2
03:29 27.0 °C 26.0 °C 1011.0 hPa NNE 5 km/h 8 km/h 95% 0.00 mm 0.00 W/m2
03:38 27.0 °C 26.0 °C 1011.2 hPa WNW 4 km/h 4 km/h 95% 0.00 mm 0.00 W/m2
03:44 26.0 °C 26.0 °C 1011.1 hPa North 4 km/h 4 km/h 95% 0.00 mm 0.00 W/m2
03:47 26.0 °C 26.0 °C 1011.0 hPa North 4 km/h 4 km/h 95% 0.00 mm 0.00 W/m2
03:53 26.0 °C 26.0 °C 1011.2 hPa North 5 km/h 8 km/h 95% 0.00 mm 0.00 W/m2
03:59 26.0 °C 26.0 °C 1011.0 hPa WNW 3 km/h 4 km/h 95% 0.00 mm 0.00 W/m2
04:03 26.0 °C 26.0 °C 1010.8 hPa North 4 km/h 4 km/h 95% 0.00 mm 0.00 W/m2
04:09 26.0 °C 26.0 °C 1011.0 hPa North 7 km/h 8 km/h 96% 0.00 mm 0.00 W/m2
04:14 26.0 °C 26.0 °C 1011.1 hPa NNE 3 km/h 4 km/h 96% 0.00 mm 0.00 W/m2
04:19 26.0 °C 26.0 °C 1011.2 hPa North 8 km/h 12 km/h 96% 0.00 mm 0.00 W/m2
04:24 26.0 °C 26.0 °C 1011.0 hPa NNW 3 km/h 4 km/h 96% 0.00 mm 0.00 W/m2
04:29 26.0 °C 26.0 °C 1011.0 hPa North 2 km/h 4 km/h 96% 0.00 mm 0.00 W/m2
04:34 26.0 °C 26.0 °C 1010.9 hPa Calm     96% 0.00 mm 0.00 W/m2
04:54 26.0 °C 26.0 °C 1010.8 hPa Calm     95% 0.00 mm 0.00 W/m2
04:59 26.0 °C 26.0 °C 1010.8 hPa Calm     95% 0.00 mm 0.00 W/m2
05:04 26.0 °C 26.0 °C 1010.8 hPa Calm     95% 0.00 mm 0.00 W/m2
05:09 26.0 °C 26.0 °C 1010.9 hPa Calm     95% 0.00 mm 0.00 W/m2
05:14 26.0 °C 26.0 °C 1010.8 hPa NW 4 km/h 4 km/h 95% 0.00 mm 0.00 W/m2
05:19 26.0 °C 26.0 °C 1010.8 hPa WNW 5 km/h 8 km/h 95% 0.00 mm 0.00 W/m2
05:20 26.0 °C 25.0 °C 1010.8 hPa Calm     95% 0.00 mm 0.00 W/m2
05:29 26.0 °C 26.0 °C 1010.8 hPa Calm     96% 0.00 mm 0.51 W/m2
05:33 26.0 °C 25.0 °C 1010.8 hPa Calm     95% 0.00 mm 3.39 W/m2
05:39 26.0 °C 26.0 °C 1010.8 hPa Calm     95% 0.00 mm 10.41 W/m2
05:43 26.0 °C 26.0 °C 1010.8 hPa Calm     95% 0.00 mm 19.46 W/m2
05:49 26.0 °C 26.0 °C 1010.8 hPa Calm     95% 0.00 mm 32.23 W/m2
05:54 27.0 °C 26.0 °C 1010.8 hPa Calm     95% 0.00 mm 48.70 W/m2
05:59 27.0 °C 26.0 °C 1010.8 hPa Calm     94% 0.00 mm 65.66 W/m2
06:04 27.0 °C 26.0 °C 1010.8 hPa Calm     94% 0.00 mm 58.60 W/m2
06:09 27.0 °C 26.0 °C 1010.9 hPa Calm     94% 0.00 mm 56.79 W/m2
06:13 27.0 °C 26.0 °C 1010.9 hPa Calm     94% 0.00 mm 61.49 W/m2
06:23 27.0 °C 26.0 °C 1010.7 hPa Calm     93% 0.00 mm 158.08 W/m2
06:29 27.0 °C 26.0 °C 1010.8 hPa Calm     92% 0.00 mm 176.55 W/m2
06:39 28.0 °C 26.0 °C 1011.0 hPa Calm   4 km/h 90% 0.00 mm 201.41 W/m2
06:44 28.0 °C 26.0 °C 1011.0 hPa West 1 km/h 4 km/h 89% 0.00 mm 200.94 W/m2
06:48 29.0 °C 27.0 °C 1011.2 hPa Calm     89% 0.00 mm 194.04 W/m2
06:54 30.0 °C 27.0 °C 1011.2 hPa Calm     86% 0.00 mm 288.54 W/m2
06:59 30.0 °C 27.0 °C 1011.3 hPa West 3 km/h 4 km/h 85% 0.00 mm 277.87 W/m2
07:00 29.0 °C 26.0 °C 1011.0 hPa West 3 km/h 4 km/h 86% 0.00 mm 271.56 W/m2
07:09 28.0 °C 26.0 °C 1011.2 hPa NW 4 km/h 4 km/h 88% 0.00 mm 257.83 W/m2
07:13 29.0 °C 26.0 °C 1011.4 hPa Calm     88% 0.00 mm 228.18 W/m2
07:19 29.0 °C 27.0 °C 1011.3 hPa SSW 2 km/h 4 km/h 87% 0.00 mm 175.79 W/m2
07:21 29.0 °C 27.0 °C 1011.2 hPa Calm     86% 0.00 mm 143.15 W/m2
07:29 29.0 °C 27.0 °C 1011.4 hPa NW 5 km/h 8 km/h 88% 0.00 mm 142.98 W/m2
07:34 28.0 °C 26.0 °C 1011.3 hPa NW 6 km/h 8 km/h 89% 0.00 mm 146.48 W/m2
07:44 28.0 °C 26.0 °C 1011.5 hPa NNW 5 km/h 8 km/h 89% 0.00 mm 340.19 W/m2
07:49 29.0 °C 26.0 °C 1011.4 hPa NNW 4 km/h 4 km/h 88% 0.00 mm 348.46 W/m2
07:59 30.0 °C 27.0 °C 1011.5 hPa NNE 1 km/h 4 km/h 84% 0.00 mm 388.63 W/m2
08:04 31.0 °C 27.0 °C 1011.5 hPa ENE 1 km/h 4 km/h 82% 0.00 mm 404.51 W/m2
08:08 31.0 °C 27.0 °C 1011.5 hPa South 4 km/h 4 km/h 81% 0.00 mm 370.31 W/m2
08:19 31.0 °C 27.0 °C 1011.5 hPa NW 3 km/h 4 km/h 80% 0.00 mm 416.16 W/m2
08:24 31.0 °C 27.0 °C 1011.5 hPa West 6 km/h 8 km/h 82% 0.00 mm 374.12 W/m2
08:29 31.0 °C 27.0 °C 1011.5 hPa NW 6 km/h 8 km/h 83% 0.00 mm 193.46 W/m2
08:33 30.0 °C 27.0 °C 1011.4 hPa SSW 4 km/h 8 km/h 83% 0.00 mm 198.96 W/m2
08:44 30.0 °C 27.0 °C 1011.5 hPa SSW 3 km/h 4 km/h 84% 0.00 mm 132.27 W/m2
08:49 30.0 °C 27.0 °C 1011.5 hPa West 4 km/h 8 km/h 85% 0.00 mm 134.98 W/m2
08:54 30.0 °C 27.0 °C 1011.6 hPa WNW 4 km/h 8 km/h 85% 0.00 mm 159.99 W/m2
08:59 30.0 °C 27.0 °C 1011.5 hPa SSW 3 km/h 4 km/h 85% 0.00 mm 168.13 W/m2
09:04 30.0 °C 27.0 °C 1011.6 hPa SSW 4 km/h 4 km/h 85% 0.00 mm 156.83 W/m2
09:09 30.0 °C 27.0 °C 1011.4 hPa West 3 km/h 4 km/h 84% 0.00 mm 212.13 W/m2
09:14 31.0 °C 27.0 °C 1011.4 hPa West 4 km/h 4 km/h 84% 0.00 mm 540.79 W/m2
09:19 31.0 °C 27.0 °C 1011.5 hPa NW 8 km/h 8 km/h 83% 0.00 mm 539.84 W/m2
09:23 31.0 °C 27.0 °C 1011.4 hPa WNW 5 km/h 8 km/h 83% 0.00 mm 186.70 W/m2
09:25 31.0 °C 27.0 °C 1011.1 hPa Calm     82% 0.00 mm 198.62 W/m2
09:34 30.0 °C 27.0 °C 1011.2 hPa North 4 km/h 4 km/h 82% 0.00 mm 209.70 W/m2
09:39 31.0 °C 27.0 °C 1011.4 hPa WNW 6 km/h 8 km/h 82% 0.00 mm 195.17 W/m2
09:44 31.0 °C 27.0 °C 1011.5 hPa SSE 8 km/h 12 km/h 81% 0.00 mm 174.45 W/m2
09:49 31.0 °C 27.0 °C 1011.3 hPa SSW 2 km/h 4 km/h 79% 0.00 mm 145.82 W/m2
09:59 32.0 °C 27.0 °C 1011.3 hPa SE 9 km/h 12 km/h 77% 0.00 mm 664.35 W/m2
10:04 33.0 °C 28.0 °C 1011.2 hPa SSW 3 km/h 4 km/h 76% 0.00 mm 709.28 W/m2
10:09 33.0 °C 28.0 °C 1011.1 hPa SW 9 km/h 12 km/h 76% 0.00 mm 699.83 W/m2
10:11 32.0 °C 27.0 °C 1011.1 hPa SSW 6 km/h 8 km/h 76% 0.00 mm 667.12 W/m2
10:19 33.0 °C 27.0 °C 1011.2 hPa NW 1 km/h 4 km/h 73% 0.00 mm 250.44 W/m2
10:24 33.0 °C 27.0 °C 1011.1 hPa SW 5 km/h 8 km/h 73% 0.00 mm 691.81 W/m2
10:28 33.0 °C 28.0 °C 1011.1 hPa South 5 km/h 8 km/h 75% 0.00 mm 648.38 W/m2
10:34 33.0 °C 28.0 °C 1011.3 hPa South 8 km/h 12 km/h 76% 0.00 mm 238.87 W/m2
10:39 32.0 °C 28.0 °C 1011.2 hPa SSW 3 km/h 4 km/h 77% 0.00 mm 620.36 W/m2
10:44 33.0 °C 28.0 °C 1011.2 hPa WSW 9 km/h 12 km/h 77% 0.00 mm 660.02 W/m2
10:49 33.0 °C 28.0 °C 1011.2 hPa South 8 km/h 12 km/h 74% 0.00 mm 233.58 W/m2
10:54 32.0 °C 27.0 °C 1011.2 hPa South 12 km/h 16 km/h 75% 0.00 mm 271.88 W/m2
10:59 32.0 °C 27.0 °C 1011.2 hPa SSE 10 km/h 12 km/h 76% 0.00 mm 576.96 W/m2
11:04 33.0 °C 27.0 °C 1011.2 hPa SE 5 km/h 8 km/h 75% 0.00 mm 709.11 W/m2
11:09 34.0 °C 27.0 °C 1011.2 hPa SSE 5 km/h 8 km/h 72% 0.00 mm 712.21 W/m2
11:14 35.0 °C 27.0 °C 1011.3 hPa ENE 4 km/h 8 km/h 66% 0.00 mm 746.61 W/m2
11:19 35.0 °C 27.0 °C 1011.1 hPa ESE 6 km/h 8 km/h 65% 0.00 mm 755.84 W/m2
11:24 35.0 °C 27.0 °C 1011.2 hPa ESE 13 km/h 16 km/h 66% 0.00 mm 711.82 W/m2
11:29 35.0 °C 27.0 °C 1011.2 hPa SSW 8 km/h 12 km/h 65% 0.00 mm 704.28 W/m2
11:34 35.0 °C 26.0 °C 1011.2 hPa SE 13 km/h 16 km/h 65% 0.00 mm 712.26 W/m2
11:44 35.0 °C 27.0 °C 1010.9 hPa SE 12 km/h 16 km/h 64% 0.00 mm 723.39 W/m2
11:49 35.0 °C 26.0 °C 1011.0 hPa East 8 km/h 12 km/h 60% 0.00 mm 730.32 W/m2
11:51 35.0 °C 26.0 °C 1010.8 hPa East 6 km/h 8 km/h 58% 0.00 mm 737.56 W/m2
11:59 36.0 °C 26.0 °C 1011.1 hPa ESE 10 km/h 12 km/h 59% 0.00 mm 722.81 W/m2
12:04 36.0 °C 26.0 °C 1011.1 hPa ESE 6 km/h 12 km/h 58% 0.00 mm 715.81 W/m2
12:09 35.0 °C 26.0 °C 1010.8 hPa ESE 10 km/h 12 km/h 59% 0.00 mm 721.75 W/m2
12:14 36.0 °C 26.0 °C 1010.6 hPa ESE 16 km/h 20 km/h 59% 0.00 mm 719.58 W/m2
12:18 36.0 °C 26.0 °C 1010.8 hPa SE 21 km/h 24 km/h 59% 0.00 mm 726.45 W/m2
12:24 35.0 °C 26.0 °C 1010.7 hPa SSE 9 km/h 12 km/h 59% 0.00 mm 722.42 W/m2
12:29 35.0 °C 26.0 °C 1010.7 hPa ESE 10 km/h 12 km/h 60% 0.00 mm 725.20 W/m2
12:34 35.0 °C 26.0 °C 1010.8 hPa SSE 18 km/h 20 km/h 60% 0.00 mm 698.07 W/m2
12:44 35.0 °C 26.0 °C 1010.8 hPa SE 21 km/h 24 km/h 62% 0.00 mm 684.27 W/m2
12:47 35.0 °C 26.0 °C 1010.8 hPa SSE 7 km/h 8 km/h 61% 0.00 mm 686.77 W/m2
12:54 36.0 °C 26.0 °C 1010.5 hPa SSE 18 km/h 20 km/h 60% 0.00 mm 697.51 W/m2
12:59 36.0 °C 26.0 °C 1010.4 hPa SSE 18 km/h 24 km/h 59% 0.00 mm 702.38 W/m2
13:04 36.0 °C 26.0 °C 1010.5 hPa ESE 14 km/h 16 km/h 59% 0.00 mm 699.93 W/m2
13:06 36.0 °C 26.0 °C 1010.1 hPa East 4 km/h 4 km/h 56% 0.00 mm 690.09 W/m2
13:12 36.0 °C 26.0 °C 1010.2 hPa North 14 km/h 20 km/h 58% 0.00 mm 700.22 W/m2
13:18 37.0 °C 26.0 °C 1010.0 hPa SSW 3 km/h 4 km/h 57% 0.00 mm 715.25 W/m2
13:24 36.0 °C 26.0 °C 1010.2 hPa SE 15 km/h 20 km/h 59% 0.00 mm 735.33 W/m2
13:28 36.0 °C 26.0 °C 1010.0 hPa SE 16 km/h 20 km/h 59% 0.00 mm 727.46 W/m2
13:31 36.0 °C 26.0 °C 1010.1 hPa SSE 12 km/h 12 km/h 57% 0.00 mm 714.83 W/m2
13:37 37.0 °C 27.0 °C 1009.7 hPa SW 3 km/h 4 km/h 56% 0.00 mm 680.80 W/m2
13:44 37.0 °C 27.0 °C 1009.8 hPa East 9 km/h 12 km/h 56% 0.00 mm 716.25 W/m2
13:48 38.0 °C 27.0 °C 1009.7 hPa East 5 km/h 8 km/h 55% 0.00 mm 706.00 W/m2
13:52 37.0 °C 26.0 °C 1009.8 hPa SSE 13 km/h 16 km/h 56% 0.00 mm 724.37 W/m2
13:58 37.0 °C 26.0 °C 1009.8 hPa SE 8 km/h 16 km/h 57% 0.00 mm 712.46 W/m2
14:04 37.0 °C 27.0 °C 1009.5 hPa NNE 9 km/h 12 km/h 55% 0.00 mm 702.84 W/m2
14:09 37.0 °C 26.0 °C 1009.5 hPa SE 9 km/h 12 km/h 55% 0.00 mm 715.52 W/m2
14:13 37.0 °C 26.0 °C 1009.5 hPa SE 23 km/h 28 km/h 55% 0.00 mm 707.91 W/m2
14:19 37.0 °C 26.0 °C 1009.4 hPa ESE 11 km/h 16 km/h 55% 0.00 mm 700.59 W/m2
14:21 37.0 °C 26.0 °C 1009.3 hPa SE 12 km/h 16 km/h 54% 0.00 mm 686.11 W/m2
14:27 36.0 °C 26.0 °C 1009.1 hPa SE 14 km/h 16 km/h 56% 0.00 mm 708.08 W/m2
14:34 37.0 °C 27.0 °C 1009.2 hPa SE 21 km/h 28 km/h 55% 0.00 mm 703.33 W/m2
14:39 36.0 °C 26.0 °C 1009.1 hPa SSE 17 km/h 20 km/h 58% 0.00 mm 705.36 W/m2
14:44 36.0 °C 26.0 °C 1009.1 hPa SE 19 km/h 24 km/h 58% 0.00 mm 723.96 W/m2
14:48 37.0 °C 26.0 °C 1009.3 hPa SE 18 km/h 24 km/h 56% 0.00 mm 735.11 W/m2
14:54 37.0 °C 27.0 °C 1009.4 hPa ESE 11 km/h 12 km/h 56% 0.00 mm 750.33 W/m2
14:59 36.0 °C 26.0 °C 1009.6 hPa ESE 10 km/h 16 km/h 58% 0.00 mm 239.28 W/m2
15:03 36.0 °C 27.0 °C 1009.5 hPa ESE 13 km/h 32 km/h 63% 0.00 mm 282.47 W/m2
15:05 34.0 °C 26.0 °C 1009.2 hPa ESE 18 km/h 28 km/h 63% 0.00 mm 184.87 W/m2
15:11 34.0 °C 27.0 °C 1009.5 hPa SE 23 km/h 28 km/h 65% 0.00 mm 432.01 W/m2
15:19 34.0 °C 26.0 °C 1009.4 hPa ENE 9 km/h 16 km/h 62% 0.00 mm 139.97 W/m2
15:22 35.0 °C 26.0 °C 1009.5 hPa SE 5 km/h 8 km/h 62% 0.00 mm 129.79 W/m2
15:29 34.0 °C 26.0 °C 1009.5 hPa SE 19 km/h 20 km/h 63% 0.00 mm 111.27 W/m2
15:32 34.0 °C 26.0 °C 1009.5 hPa SSE 10 km/h 12 km/h 64% 0.00 mm 98.13 W/m2
15:38 33.0 °C 26.0 °C 1009.5 hPa SE 13 km/h 16 km/h 64% 0.00 mm 45.75 W/m2
15:44 34.0 °C 27.0 °C 1009.8 hPa SSE 22 km/h 28 km/h 70% 0.00 mm 54.83 W/m2
15:48 33.0 °C 27.0 °C 1009.6 hPa SSE 18 km/h 24 km/h 77% 0.00 mm 61.40 W/m2
15:54 32.0 °C 27.0 °C 1009.6 hPa SSE 15 km/h 20 km/h 77% 0.00 mm 75.07 W/m2
15:59 32.0 °C 27.0 °C 1009.8 hPa SW 16 km/h 24 km/h 77% 0.00 mm 97.82 W/m2
16:07 32.0 °C 27.0 °C 1009.8 hPa South 6 km/h 8 km/h 76% 0.00 mm 175.87 W/m2
16:14 32.0 °C 27.0 °C 1009.9 hPa SSE 8 km/h 12 km/h 75% 0.00 mm 120.64 W/m2
16:19 32.0 °C 27.0 °C 1009.9 hPa South 13 km/h 20 km/h 78% 0.00 mm 139.63 W/m2
16:24 31.0 °C 27.0 °C 1010.0 hPa South 12 km/h 16 km/h 78% 0.00 mm 140.56 W/m2
16:28 31.0 °C 27.0 °C 1009.9 hPa SSW 11 km/h 16 km/h 78% 0.00 mm 140.58 W/m2
16:34 31.0 °C 27.0 °C 1010.3 hPa South 7 km/h 8 km/h 80% 0.00 mm 128.06 W/m2
16:39 31.0 °C 27.0 °C 1010.6 hPa SSW 13 km/h 16 km/h 81% 0.00 mm 73.11 W/m2
16:44 31.0 °C 27.0 °C 1010.9 hPa SSW 9 km/h 12 km/h 81% 0.00 mm 43.44 W/m2
16:49 31.0 °C 27.0 °C 1011.0 hPa SSW 10 km/h 12 km/h 82% 0.00 mm 27.67 W/m2
16:53 30.0 °C 27.0 °C 1011.0 hPa SSW 7 km/h 8 km/h 82% 0.00 mm 19.52 W/m2
16:59 30.0 °C 27.0 °C 1011.0 hPa SSW 10 km/h 12 km/h 83% 0.00 mm 23.35 W/m2
17:04 30.0 °C 26.0 °C 1011.1 hPa SSW 12 km/h 16 km/h 82% 0.00 mm 29.01 W/m2
17:09 30.0 °C 27.0 °C 1011.3 hPa South 11 km/h 16 km/h 83% 0.00 mm 33.28 W/m2
17:14 30.0 °C 27.0 °C 1011.3 hPa SSW 12 km/h 16 km/h 83% 0.00 mm 35.44 W/m2
17:19 30.0 °C 26.0 °C 1011.2 hPa SSW 12 km/h 16 km/h 82% 0.00 mm 38.88 W/m2
17:24 30.0 °C 26.0 °C 1011.2 hPa SSW 5 km/h 8 km/h 81% 0.00 mm 39.47 W/m2
17:29 30.0 °C 26.0 °C 1011.1 hPa SSW 9 km/h 12 km/h 79% 0.00 mm 40.61 W/m2
17:34 31.0 °C 27.0 °C 1011.2 hPa SSW 6 km/h 8 km/h 79% 0.00 mm 38.77 W/m2
17:39 31.0 °C 27.0 °C 1011.0 hPa South 8 km/h 8 km/h 79% 0.00 mm 37.63 W/m2
17:43 31.0 °C 26.0 °C 1011.2 hPa SW 9 km/h 12 km/h 79% 0.00 mm 37.48 W/m2
17:49 30.0 °C 27.0 °C 1011.0 hPa SSE 8 km/h 8 km/h 81% 0.00 mm 38.45 W/m2
17:54 30.0 °C 27.0 °C 1011.2 hPa SW 5 km/h 8 km/h 81% 0.00 mm 35.88 W/m2
17:58 30.0 °C 27.0 °C 1011.6 hPa NW 5 km/h 8 km/h 81% 0.00 mm 26.79 W/m2
18:19 28.0 °C 25.0 °C 1012.2 hPa North 14 km/h 20 km/h 86% 0.00 mm 5.49 W/m2
18:24 28.0 °C 25.0 °C 1012.2 hPa NNE 12 km/h 16 km/h 85% 0.00 mm 2.66 W/m2
18:29 28.0 °C 25.0 °C 1012.1 hPa North 13 km/h 20 km/h 85% 0.00 mm 0.73 W/m2
18:33 28.0 °C 25.0 °C 1012.2 hPa NNE 13 km/h 16 km/h 85% 0.00 mm 0.00 W/m2
18:35 27.0 °C 25.0 °C 1011.7 hPa North 9 km/h 12 km/h 85% 0.00 mm 0.00 W/m2
18:44 28.0 °C 25.0 °C 1012.1 hPa NNE 8 km/h 12 km/h 85% 0.00 mm 0.00 W/m2
18:49 28.0 °C 25.0 °C 1012.2 hPa NNE 9 km/h 12 km/h 85% 0.00 mm 0.00 W/m2
18:59 28.0 °C 25.0 °C 1012.2 hPa North 9 km/h 12 km/h 85% 0.00 mm 0.00 W/m2
19:04 28.0 °C 25.0 °C 1012.2 hPa North 5 km/h 8 km/h 85% 0.00 mm 0.00 W/m2
19:08 28.0 °C 25.0 °C 1012.2 hPa NNE 5 km/h 8 km/h 85% 0.00 mm 0.00 W/m2
19:14 28.0 °C 25.0 °C 1012.3 hPa SSE 3 km/h 4 km/h 85% 0.00 mm 0.00 W/m2
19:19 28.0 °C 25.0 °C 1012.2 hPa NNE 4 km/h 4 km/h 85% 0.00 mm 0.00 W/m2
19:24 28.0 °C 25.0 °C 1012.2 hPa Calm     84% 0.00 mm 0.00 W/m2
19:29 28.0 °C 25.0 °C 1012.2 hPa Calm     84% 0.00 mm 0.00 W/m2
19:34 28.0 °C 25.0 °C 1012.1 hPa NNE 3 km/h 4 km/h 84% 0.00 mm 0.00 W/m2
19:44 28.0 °C 25.0 °C 1012.5 hPa NNE 5 km/h 8 km/h 85% 0.00 mm 0.00 W/m2
19:48 28.0 °C 25.0 °C 1012.5 hPa NNE 1 km/h 4 km/h 85% 0.00 mm 0.00 W/m2
19:54 28.0 °C 26.0 °C 1012.5 hPa ENE 2 km/h 4 km/h 85% 0.00 mm 0.00 W/m2
19:59 28.0 °C 26.0 °C 1012.4 hPa ENE 1 km/h 4 km/h 85% 0.00 mm 0.00 W/m2
20:04 28.0 °C 26.0 °C 1012.5 hPa NNE 6 km/h 8 km/h 85% 0.00 mm 0.00 W/m2
20:09 28.0 °C 25.0 °C 1012.5 hPa NE 3 km/h 4 km/h 85% 0.00 mm 0.00 W/m2
20:11 28.0 °C 26.0 °C 1012.5 hPa NE 1 km/h 4 km/h 85% 0.00 mm 0.00 W/m2
20:18 28.0 °C 26.0 °C 1012.2 hPa East 2 km/h 4 km/h 85% 0.00 mm 0.00 W/m2
20:39 29.0 °C 26.0 °C 1012.9 hPa Calm     84% 0.00 mm 0.00 W/m2
20:42 29.0 °C 26.0 °C 1012.9 hPa ENE 1 km/h 4 km/h 84% 0.00 mm 0.00 W/m2
20:54 29.0 °C 26.0 °C 1012.9 hPa Calm     84% 0.00 mm 0.00 W/m2
20:59 29.0 °C 26.0 °C 1013.0 hPa ENE 1 km/h 4 km/h 84% 0.00 mm 0.00 W/m2
21:03 29.0 °C 26.0 °C 1013.2 hPa NNE 2 km/h 4 km/h 84% 0.00 mm 0.00 W/m2
21:05 29.0 °C 26.0 °C 1013.2 hPa Calm     84% 0.00 mm 0.00 W/m2
21:14 29.0 °C 26.0 °C 1013.4 hPa NE 2 km/h 4 km/h 84% 0.00 mm 0.00 W/m2
21:19 29.0 °C 26.0 °C 1013.3 hPa NE 1 km/h 4 km/h 84% 0.00 mm 0.00 W/m2
21:24 29.0 °C 26.0 °C 1013.5 hPa NE 1 km/h 4 km/h 84% 0.00 mm 0.00 W/m2
21:29 29.0 °C 26.0 °C 1013.6 hPa NNE 4 km/h 4 km/h 84% 0.00 mm 0.00 W/m2
21:34 29.0 °C 26.0 °C 1013.5 hPa Calm   4 km/h 84% 0.00 mm 0.00 W/m2
21:39 29.0 °C 26.0 °C 1013.4 hPa Calm     84% 0.00 mm 0.00 W/m2
21:44 29.0 °C 26.0 °C 1013.6 hPa NNE 1 km/h 4 km/h 84% 0.00 mm 0.00 W/m2
21:49 29.0 °C 26.0 °C 1013.6 hPa NE 2 km/h 4 km/h 84% 0.00 mm 0.00 W/m2
21:51 29.0 °C 26.0 °C 1013.6 hPa NE 1 km/h 4 km/h 84% 0.00 mm 0.00 W/m2
21:59 29.0 °C 26.0 °C 1014.0 hPa North 7 km/h 8 km/h 84% 0.00 mm 0.00 W/m2
22:04 29.0 °C 26.0 °C 1013.9 hPa North 7 km/h 8 km/h 84% 0.00 mm 0.00 W/m2
22:09 29.0 °C 26.0 °C 1013.9 hPa North 3 km/h 4 km/h 84% 0.00 mm 0.00 W/m2
22:14 29.0 °C 26.0 °C 1013.9 hPa North 3 km/h 4 km/h 85% 0.00 mm 0.00 W/m2
22:19 28.0 °C 26.0 °C 1013.7 hPa NNE 3 km/h 4 km/h 85% 0.00 mm 0.00 W/m2
22:24 28.0 °C 26.0 °C 1013.8 hPa North 4 km/h 4 km/h 85% 0.00 mm 0.00 W/m2
22:28 28.0 °C 26.0 °C 1013.6 hPa NNE 1 km/h 4 km/h 86% 0.00 mm 0.00 W/m2
22:34 29.0 °C 26.0 °C 1013.9 hPa NNE 3 km/h 4 km/h 85% 0.00 mm 0.00 W/m2
22:39 29.0 °C 26.0 °C 1013.7 hPa NNE 3 km/h 4 km/h 84% 0.00 mm 0.00 W/m2
22:44 28.0 °C 26.0 °C 1013.7 hPa NNE 5 km/h 8 km/h 84% 0.00 mm 0.00 W/m2
22:45 28.0 °C 26.0 °C 1013.8 hPa North 3 km/h 4 km/h 84% 0.00 mm 0.00 W/m2
22:54 28.0 °C 26.0 °C 1013.6 hPa North 1 km/h 4 km/h 85% 0.00 mm 0.00 W/m2
22:59 28.0 °C 26.0 °C 1013.6 hPa NNW 2 km/h 4 km/h 86% 0.00 mm 0.00 W/m2
23:04 28.0 °C 26.0 °C 1013.9 hPa NNW 7 km/h 8 km/h 86% 0.00 mm 0.00 W/m2
23:08 28.0 °C 26.0 °C 1013.6 hPa North 7 km/h 12 km/h 86% 0.00 mm 0.00 W/m2
23:14 28.0 °C 26.0 °C 1013.8 hPa NNW 6 km/h 8 km/h 86% 0.00 mm 0.00 W/m2
23:19 28.0 °C 25.0 °C 1013.8 hPa NNW 7 km/h 8 km/h 87% 0.00 mm 0.00 W/m2
23:24 28.0 °C 26.0 °C 1013.8 hPa NNW 8 km/h 8 km/h 88% 0.00 mm 0.00 W/m2
23:29 28.0 °C 26.0 °C 1013.9 hPa NNW 8 km/h 8 km/h 89% 0.00 mm 0.00 W/m2
23:33 27.0 °C 25.0 °C 1013.9 hPa North 8 km/h 12 km/h 90% 0.00 mm 0.00 W/m2
23:39 27.0 °C 25.0 °C 1013.5 hPa North 5 km/h 8 km/h 91% 0.00 mm 0.00 W/m2
23:44 27.0 °C 25.0 °C 1013.5 hPa NNW 9 km/h 16 km/h 91% 0.00 mm 0.00 W/m2
23:49 27.0 °C 25.0 °C 1013.6 hPa NW 10 km/h 12 km/h 92% 0.00 mm 0.00 W/m2
23:54 27.0 °C 25.0 °C 1013.5 hPa NW 12 km/h 16 km/h 92% 0.00 mm 0.00 W/m2
23:58 27.0 °C 25.0 °C 1013.5 hPa NNW 6 km/h 8 km/h 92% 0.00 mm 0.00 W/m2
PIMOHWEATHER Philippines
Compliments of Weather Underground - 2 mb